createdAt,value
2019-01-11T00:00:56.513Z,4.40
2019-01-11T00:01:57.575Z,4.40
2019-01-11T00:02:58.828Z,4.40
2019-01-11T00:03:59.928Z,4.40
2019-01-11T00:05:00.980Z,4.40
2019-01-11T00:06:02.108Z,4.40
2019-01-11T00:07:03.350Z,4.40
2019-01-11T00:08:04.968Z,4.40
2019-01-11T00:09:06.276Z,4.40
2019-01-11T00:10:07.824Z,4.40
2019-01-11T00:11:08.824Z,4.40
2019-01-11T00:12:09.987Z,4.40
2019-01-11T00:13:10.994Z,4.40
2019-01-11T00:14:12.228Z,4.40
2019-01-11T00:15:13.245Z,4.40
2019-01-11T00:16:14.396Z,4.30
2019-01-11T00:17:15.566Z,4.30
2019-01-11T00:18:16.815Z,4.30
2019-01-11T00:19:17.819Z,4.30
2019-01-11T00:20:18.828Z,4.30
2019-01-11T00:21:19.919Z,4.30
2019-01-11T00:22:21.012Z,4.30
2019-01-11T00:23:22.036Z,4.20
2019-01-11T00:24:23.064Z,4.30
2019-01-11T00:25:24.100Z,4.20
2019-01-11T00:26:25.102Z,4.20
2019-01-11T00:27:26.189Z,4.10
2019-01-11T00:28:27.280Z,4.10
2019-01-11T00:29:28.302Z,4.10
2019-01-11T00:30:29.351Z,4.10
2019-01-11T00:31:30.371Z,4.10
2019-01-11T00:32:31.427Z,4.10
2019-01-11T00:33:32.440Z,4.10
2019-01-11T00:34:33.464Z,4.10
2019-01-11T00:35:34.480Z,4.10
2019-01-11T00:36:35.506Z,4.10
2019-01-11T00:37:36.523Z,4.10
2019-01-11T00:38:37.675Z,4.20
2019-01-11T00:39:38.709Z,4.10
2019-01-11T00:40:39.807Z,4.10
2019-01-11T00:41:41.325Z,4.00
2019-01-11T00:42:42.356Z,4.00
2019-01-11T00:43:43.379Z,4.10
2019-01-11T00:44:44.400Z,4.00
2019-01-11T00:45:45.514Z,4.00
2019-01-11T00:46:46.531Z,4.00
2019-01-11T00:47:47.578Z,4.00
2019-01-11T00:48:48.596Z,3.90
2019-01-11T00:49:49.812Z,3.90
2019-01-11T00:50:50.836Z,3.90
2019-01-11T00:51:51.878Z,3.90
2019-01-11T00:52:52.924Z,3.90
2019-01-11T00:53:53.943Z,3.80
2019-01-11T00:54:54.968Z,3.80
2019-01-11T00:55:55.993Z,3.80
2019-01-11T00:56:57.013Z,3.80
2019-01-11T00:57:58.044Z,3.80
2019-01-11T00:58:59.052Z,3.80
2019-01-11T01:00:00.155Z,3.90
2019-01-11T01:01:01.288Z,3.90
2019-01-11T01:02:02.709Z,3.90
2019-01-11T01:03:04.127Z,3.90
2019-01-11T01:04:05.152Z,3.90
2019-01-11T01:05:06.365Z,3.90
2019-01-11T01:06:07.488Z,3.90
2019-01-11T01:07:08.807Z,3.90
2019-01-11T01:08:09.836Z,3.90
2019-01-11T01:09:10.844Z,3.90
2019-01-11T01:10:12.190Z,3.90
2019-01-11T01:11:13.192Z,3.90
2019-01-11T01:12:14.316Z,3.90
2019-01-11T01:13:15.443Z,3.90
2019-01-11T01:14:16.472Z,3.90
2019-01-11T01:15:17.991Z,3.90
2019-01-11T01:16:19.013Z,3.90
2019-01-11T01:17:20.032Z,3.90
2019-01-11T01:18:21.163Z,4.00
2019-01-11T01:19:22.180Z,4.00
2019-01-11T01:20:23.201Z,4.00
2019-01-11T01:21:24.216Z,4.00
2019-01-11T01:22:25.247Z,4.00
2019-01-11T01:23:26.268Z,4.00
2019-01-11T01:24:27.544Z,4.00
2019-01-11T01:25:28.552Z,3.90
2019-01-11T01:26:29.670Z,4.00
2019-01-11T01:27:30.704Z,4.00
2019-01-11T01:28:31.728Z,4.00
2019-01-11T01:29:32.760Z,4.00
2019-01-11T01:30:34.077Z,4.00
2019-01-11T01:31:35.368Z,4.00
2019-01-11T01:32:36.396Z,4.00
2019-01-11T01:33:37.422Z,4.00
2019-01-11T01:34:38.429Z,4.10
2019-01-11T01:35:39.436Z,4.10
2019-01-11T01:36:40.453Z,4.10
2019-01-11T01:37:41.796Z,4.10
2019-01-11T01:38:42.822Z,4.10
2019-01-11T01:39:43.840Z,4.10
2019-01-11T01:40:44.860Z,4.10
2019-01-11T01:41:45.876Z,4.10
2019-01-11T01:42:46.908Z,4.10
2019-01-11T01:43:47.929Z,4.10
2019-01-11T01:44:49.063Z,4.10
2019-01-11T01:45:50.076Z,4.20
2019-01-11T01:46:51.093Z,4.20
2019-01-11T01:47:52.146Z,4.20
2019-01-11T01:48:53.240Z,4.20
2019-01-11T01:49:54.263Z,4.20
2019-01-11T01:50:55.294Z,4.30
2019-01-11T01:51:56.325Z,4.30
2019-01-11T01:52:57.356Z,4.30
2019-01-11T01:53:58.368Z,4.30
2019-01-11T01:54:59.397Z,4.30
2019-01-11T01:56:00.424Z,4.30
2019-01-11T01:57:01.439Z,4.30
2019-01-11T01:58:03.363Z,4.30
2019-01-11T01:59:04.377Z,4.30
2019-01-11T02:00:15.207Z,4.30
2019-01-11T02:01:16.232Z,4.30
2019-01-11T02:02:17.252Z,4.30
2019-01-11T02:03:18.292Z,4.30
2019-01-11T02:04:19.324Z,4.30
2019-01-11T02:05:20.648Z,4.40
2019-01-11T02:06:21.668Z,4.40
2019-01-11T02:07:22.677Z,4.40
2019-01-11T02:08:23.726Z,4.40
2019-01-11T02:09:24.747Z,4.40
2019-01-11T02:10:25.864Z,4.40
2019-01-11T02:11:26.903Z,4.40
2019-01-11T02:12:28.028Z,4.40
2019-01-11T02:13:29.060Z,4.40
2019-01-11T02:14:30.068Z,4.40
2019-01-11T02:15:31.180Z,4.40
2019-01-11T02:16:32.206Z,4.30
2019-01-11T02:17:33.211Z,4.40
2019-01-11T02:18:34.243Z,4.30
2019-01-11T02:19:35.255Z,4.40
2019-01-11T02:20:36.272Z,4.30
2019-01-11T02:21:37.395Z,4.30
2019-01-11T02:22:38.417Z,4.30
2019-01-11T02:23:39.439Z,4.50
2019-01-11T02:24:40.462Z,4.30
2019-01-11T02:25:46.167Z,4.30
2019-01-11T02:26:44.430Z,4.30
2019-01-11T02:27:45.448Z,4.30
2019-01-11T02:28:46.475Z,4.30
2019-01-11T02:29:47.497Z,4.30
2019-01-11T02:30:48.522Z,4.30
2019-01-11T02:31:49.543Z,4.30
2019-01-11T02:32:53.081Z,4.20
2019-01-11T02:33:53.492Z,4.20
2019-01-11T02:34:54.517Z,4.20
2019-01-11T02:35:55.537Z,4.20
2019-01-11T02:36:56.563Z,4.20
2019-01-11T02:37:57.887Z,4.10
2019-01-11T02:38:59.034Z,4.10
2019-01-11T02:40:00.095Z,4.10
2019-01-11T02:41:01.263Z,4.10
2019-01-11T02:42:02.387Z,4.10
2019-01-11T02:43:03.604Z,4.10
2019-01-11T02:44:04.632Z,4.10
2019-01-11T02:45:09.260Z,4.10
2019-01-11T02:46:10.391Z,4.10
2019-01-11T02:47:11.416Z,4.10
2019-01-11T02:48:12.427Z,4.10
2019-01-11T02:49:13.447Z,4.10
2019-01-11T02:50:14.766Z,4.10
2019-01-11T02:51:15.798Z,4.10
2019-01-11T02:52:16.830Z,4.10
2019-01-11T02:53:17.849Z,4.10
2019-01-11T02:54:18.866Z,4.10
2019-01-11T02:55:19.885Z,4.10
2019-01-11T02:56:20.900Z,4.00
2019-01-11T02:57:21.921Z,4.00
2019-01-11T02:58:22.939Z,4.00
2019-01-11T02:59:23.960Z,4.10
2019-01-11T03:00:24.983Z,4.10
2019-01-11T03:01:26.001Z,4.10
2019-01-11T03:02:27.033Z,4.10
2019-01-11T03:03:28.045Z,4.10
2019-01-11T03:04:29.077Z,4.10
2019-01-11T03:05:30.106Z,4.10
2019-01-11T03:06:31.132Z,4.20
2019-01-11T03:07:32.151Z,4.10
2019-01-11T03:08:33.163Z,4.10
2019-01-11T03:09:34.177Z,4.10
2019-01-11T03:10:35.207Z,4.10
2019-01-11T03:11:36.241Z,4.00
2019-01-11T03:12:37.244Z,4.00
2019-01-11T03:13:38.272Z,3.90
2019-01-11T03:14:39.304Z,3.90
2019-01-11T03:15:40.319Z,3.90
2019-01-11T03:16:41.655Z,4.00
2019-01-11T03:17:43.677Z,4.00
2019-01-11T03:18:45.004Z,4.00
2019-01-11T03:19:47.887Z,4.00
2019-01-11T03:20:48.956Z,4.00
2019-01-11T03:21:50.075Z,4.10
2019-01-11T03:22:51.093Z,4.10
2019-01-11T03:23:52.123Z,4.10
2019-01-11T03:24:53.145Z,4.00
2019-01-11T03:25:54.166Z,4.00
2019-01-11T03:26:55.196Z,3.90
2019-01-11T03:27:56.230Z,3.90
2019-01-11T03:28:57.261Z,3.90
2019-01-11T03:29:58.284Z,3.80
2019-01-11T03:31:01.207Z,3.90
2019-01-11T03:32:02.591Z,3.80
2019-01-11T03:33:03.624Z,3.80
2019-01-11T03:34:04.661Z,3.70
2019-01-11T03:35:07.680Z,3.90
2019-01-11T03:36:08.704Z,3.80
2019-01-11T03:37:09.723Z,3.80
2019-01-11T03:38:10.875Z,3.90
2019-01-11T03:39:12.075Z,3.90
2019-01-11T03:40:15.900Z,3.90
2019-01-11T03:41:16.919Z,3.90
2019-01-11T03:42:18.245Z,3.90
2019-01-11T03:43:19.266Z,4.00
2019-01-11T03:44:20.300Z,3.90
2019-01-11T03:45:22.538Z,3.90
2019-01-11T03:46:23.651Z,3.90
2019-01-11T03:47:24.675Z,3.90
2019-01-11T03:48:25.693Z,3.80
2019-01-11T03:49:26.726Z,3.80
2019-01-11T03:50:27.754Z,3.80
2019-01-11T03:51:28.785Z,3.80
2019-01-11T03:52:29.840Z,3.70
2019-01-11T03:53:30.955Z,3.80
2019-01-11T03:54:31.990Z,3.80
2019-01-11T03:55:32.995Z,3.80
2019-01-11T03:56:34.016Z,3.80
2019-01-11T03:57:35.037Z,3.80
2019-01-11T03:58:36.160Z,3.70
2019-01-11T03:59:37.175Z,3.70
2019-01-11T04:00:38.200Z,3.60
2019-01-11T04:01:39.216Z,3.60
2019-01-11T04:02:40.241Z,3.60
2019-01-11T04:03:41.256Z,3.70
2019-01-11T04:04:42.293Z,3.60
2019-01-11T04:05:43.314Z,3.70
2019-01-11T04:06:44.328Z,3.70
2019-01-11T04:07:45.369Z,3.60
2019-01-11T04:08:46.460Z,3.60
2019-01-11T04:09:47.494Z,3.60
2019-01-11T04:10:48.510Z,3.70
2019-01-11T04:11:49.523Z,3.70
2019-01-11T04:12:50.636Z,3.70
2019-01-11T04:13:51.652Z,3.80
2019-01-11T04:14:52.700Z,3.80
2019-01-11T04:15:53.708Z,3.90
2019-01-11T04:16:54.720Z,3.90
2019-01-11T04:17:57.644Z,3.90
2019-01-11T04:19:00.574Z,3.90
2019-01-11T04:20:03.904Z,3.80
2019-01-11T04:21:05.025Z,3.80
2019-01-11T04:22:08.049Z,3.70
2019-01-11T04:23:09.080Z,3.70
2019-01-11T04:24:10.130Z,3.60
2019-01-11T04:25:13.077Z,3.50
2019-01-11T04:26:14.095Z,3.60
2019-01-11T04:27:15.134Z,3.60
2019-01-11T04:28:16.158Z,3.60
2019-01-11T04:29:17.208Z,3.60
2019-01-11T04:30:18.926Z,3.60
2019-01-11T04:31:19.948Z,3.60
2019-01-11T04:32:20.975Z,3.60
2019-01-11T04:33:21.986Z,3.60
2019-01-11T04:34:23.017Z,3.50
2019-01-11T04:35:24.052Z,3.50
2019-01-11T04:36:25.077Z,3.50
2019-01-11T04:37:26.094Z,3.60
2019-01-11T04:38:27.212Z,3.60
2019-01-11T04:39:28.259Z,3.60
2019-01-11T04:40:34.182Z,3.60
2019-01-11T04:41:32.200Z,3.60
2019-01-11T04:42:33.204Z,3.60
2019-01-11T04:43:34.248Z,3.60
2019-01-11T04:44:35.269Z,3.50
2019-01-11T04:45:36.292Z,3.60
2019-01-11T04:46:37.321Z,3.50
2019-01-11T04:47:38.342Z,3.50
2019-01-11T04:48:39.356Z,3.60
2019-01-11T04:49:41.300Z,3.60
2019-01-11T04:50:42.318Z,3.60
2019-01-11T04:51:43.361Z,3.50
2019-01-11T04:52:46.152Z,3.50
2019-01-11T04:53:49.324Z,3.40
2019-01-11T04:54:50.343Z,3.40
2019-01-11T04:55:51.365Z,3.40
2019-01-11T04:56:52.399Z,3.30
2019-01-11T04:57:53.420Z,3.30
2019-01-11T04:58:54.457Z,3.30
2019-01-11T04:59:55.488Z,3.30
2019-01-11T05:00:56.625Z,3.30
2019-01-11T05:01:57.652Z,3.30
2019-01-11T05:02:58.685Z,3.30
2019-01-11T05:03:59.793Z,3.20
2019-01-11T05:05:01.056Z,3.30
2019-01-11T05:06:02.085Z,3.30
2019-01-11T05:07:03.222Z,3.30
2019-01-11T05:08:04.236Z,3.30
2019-01-11T05:09:05.662Z,3.30
2019-01-11T05:10:09.798Z,3.30
2019-01-11T05:11:10.835Z,3.30
2019-01-11T05:12:11.943Z,3.40
2019-01-11T05:13:23.609Z,3.40
2019-01-11T05:14:24.627Z,3.40
2019-01-11T05:15:25.667Z,3.30
2019-01-11T05:16:26.681Z,3.30
2019-01-11T05:17:27.701Z,3.30
2019-01-11T05:18:28.721Z,3.30
2019-01-11T05:19:29.749Z,3.20
2019-01-11T05:20:30.777Z,3.20
2019-01-11T05:21:31.793Z,3.10
2019-01-11T05:22:32.826Z,3.10
2019-01-11T05:23:33.844Z,3.10
2019-01-11T05:24:34.869Z,3.20
2019-01-11T05:25:35.895Z,3.10
2019-01-11T05:26:36.913Z,3.10
2019-01-11T05:27:37.940Z,3.10
2019-01-11T05:28:38.961Z,3.10
2019-01-11T05:29:39.996Z,3.10
2019-01-11T05:30:41.034Z,3.10
2019-01-11T05:31:42.054Z,3.10
2019-01-11T05:32:43.076Z,3.10
2019-01-11T05:33:44.188Z,3.20
2019-01-11T05:34:45.204Z,3.20
2019-01-11T05:35:46.235Z,3.20
2019-01-11T05:36:47.249Z,3.20
2019-01-11T05:37:48.269Z,3.20
2019-01-11T05:38:49.289Z,3.30
2019-01-11T05:39:50.309Z,3.30
2019-01-11T05:40:51.342Z,3.30
2019-01-11T05:41:52.357Z,3.40
2019-01-11T05:42:53.376Z,3.40
2019-01-11T05:43:54.388Z,3.30
2019-01-11T05:44:55.404Z,3.30
2019-01-11T05:45:56.435Z,3.30
2019-01-11T05:46:57.448Z,3.40
2019-01-11T05:47:58.473Z,3.40
2019-01-11T05:48:59.510Z,3.30
2019-01-11T05:50:00.524Z,3.30
2019-01-11T05:51:01.569Z,3.30
2019-01-11T05:52:02.620Z,3.20
2019-01-11T05:53:03.626Z,3.20
2019-01-11T05:54:04.939Z,3.20
2019-01-11T05:55:07.666Z,3.20
2019-01-11T05:56:08.970Z,3.30
2019-01-11T05:57:10.002Z,3.30
2019-01-11T05:58:22.017Z,3.30
2019-01-11T05:59:23.042Z,3.20
2019-01-11T06:00:24.051Z,3.20
2019-01-11T06:01:25.085Z,3.30
2019-01-11T06:02:26.115Z,3.30
2019-01-11T06:03:27.147Z,3.30
2019-01-11T06:04:38.901Z,3.40
2019-01-11T06:05:40.183Z,3.30
2019-01-11T06:06:49.198Z,3.30
2019-01-11T06:07:50.313Z,3.20
2019-01-11T06:08:51.825Z,3.20
2019-01-11T06:09:52.932Z,3.20
2019-01-11T06:10:53.953Z,3.20
2019-01-11T06:11:54.979Z,3.30
2019-01-11T06:12:55.988Z,3.30
2019-01-11T06:13:57.029Z,3.30
2019-01-11T06:14:58.061Z,3.40
2019-01-11T06:15:59.092Z,3.40
2019-01-11T06:17:00.101Z,3.40
2019-01-11T06:18:01.114Z,3.40
2019-01-11T06:19:02.240Z,3.40
2019-01-11T06:20:07.065Z,3.50
2019-01-11T06:21:08.097Z,3.50
2019-01-11T06:22:09.112Z,3.50
2019-01-11T06:23:10.136Z,3.50
2019-01-11T06:24:11.178Z,3.50
2019-01-11T06:25:12.328Z,3.50
2019-01-11T06:26:13.353Z,3.50
2019-01-11T06:27:14.369Z,3.50
2019-01-11T06:28:15.417Z,3.50
2019-01-11T06:29:16.432Z,3.40
2019-01-11T06:30:17.461Z,3.40
2019-01-11T06:31:18.494Z,3.50
2019-01-11T06:32:19.525Z,3.50
2019-01-11T06:33:20.601Z,3.50
2019-01-11T06:34:21.662Z,3.50
2019-01-11T06:35:23.190Z,3.50
2019-01-11T06:36:25.171Z,3.60
2019-01-11T06:37:27.447Z,3.60
2019-01-11T06:38:28.790Z,3.60
2019-01-11T06:39:31.813Z,3.70
2019-01-11T06:40:33.367Z,3.60
2019-01-11T06:41:39.749Z,3.60
2019-01-11T06:42:40.841Z,3.60
2019-01-11T06:43:43.956Z,3.60
2019-01-11T06:44:44.969Z,3.70
2019-01-11T06:45:51.160Z,3.60
2019-01-11T06:46:52.288Z,3.60
2019-01-11T06:47:53.319Z,3.60
2019-01-11T06:48:54.349Z,3.60
2019-01-11T06:49:55.681Z,3.60
2019-01-11T06:50:56.933Z,3.60
2019-01-11T06:51:58.360Z,3.60
2019-01-11T06:53:02.436Z,3.60
2019-01-11T06:54:03.687Z,3.60
2019-01-11T06:55:05.548Z,3.70
2019-01-11T06:56:06.575Z,3.70
2019-01-11T06:57:07.651Z,3.60
2019-01-11T06:58:09.369Z,3.60
2019-01-11T06:59:10.485Z,3.70
2019-01-11T07:00:14.330Z,3.70
2019-01-11T07:01:15.365Z,3.80
2019-01-11T07:02:16.384Z,3.70
2019-01-11T07:03:17.428Z,3.70
2019-01-11T07:04:18.439Z,3.70
2019-01-11T07:05:19.464Z,3.80
2019-01-11T07:06:20.492Z,3.80
2019-01-11T07:07:21.524Z,3.80
2019-01-11T07:08:22.554Z,3.80
2019-01-11T07:09:23.579Z,3.80
2019-01-11T07:10:24.594Z,3.80
2019-01-11T07:11:25.627Z,3.70
2019-01-11T07:12:26.667Z,3.70
2019-01-11T07:13:27.690Z,3.70
2019-01-11T07:14:28.740Z,3.70
2019-01-11T07:15:32.012Z,3.70
2019-01-11T07:16:33.185Z,3.60
2019-01-11T07:17:34.227Z,3.60
2019-01-11T07:18:35.240Z,3.60
2019-01-11T07:19:36.277Z,3.50
2019-01-11T07:20:42.782Z,3.50
2019-01-11T07:21:40.533Z,3.50
2019-01-11T07:22:41.907Z,3.50
2019-01-11T07:23:42.923Z,3.60
2019-01-11T07:24:44.653Z,3.50
2019-01-11T07:25:45.784Z,3.50
2019-01-11T07:26:46.805Z,3.50
2019-01-11T07:27:55.272Z,3.50
2019-01-11T07:28:56.345Z,3.60
2019-01-11T07:29:57.429Z,3.60
2019-01-11T07:31:03.143Z,3.60
2019-01-11T07:32:04.293Z,3.60
2019-01-11T07:33:07.094Z,3.60
2019-01-11T07:34:08.128Z,3.50
2019-01-11T07:35:09.360Z,3.50
2019-01-11T07:36:15.284Z,3.50
2019-01-11T07:37:16.311Z,3.40
2019-01-11T07:38:17.324Z,3.50
2019-01-11T07:39:20.250Z,3.50
2019-01-11T07:40:21.279Z,3.50
2019-01-11T07:41:22.532Z,3.50
2019-01-11T07:42:23.586Z,3.50
2019-01-11T07:43:24.605Z,3.50
2019-01-11T07:44:26.136Z,3.50
2019-01-11T07:45:27.165Z,3.50
2019-01-11T07:46:28.168Z,3.40
2019-01-11T07:47:29.204Z,3.60
2019-01-11T07:48:30.221Z,3.50
2019-01-11T07:49:31.248Z,3.50
2019-01-11T07:50:32.489Z,3.50
2019-01-11T07:51:33.624Z,3.50
2019-01-11T07:52:34.670Z,3.50
2019-01-11T07:53:35.667Z,3.40
2019-01-11T07:54:36.697Z,3.20
2019-01-11T07:55:37.730Z,3.40
2019-01-11T07:56:38.759Z,3.40
2019-01-11T07:57:39.774Z,3.30
2019-01-11T07:58:40.796Z,3.30
2019-01-11T07:59:41.820Z,3.20
2019-01-11T08:00:42.844Z,3.20
2019-01-11T08:01:43.867Z,3.20
2019-01-11T08:02:45.035Z,3.30
2019-01-11T08:03:46.036Z,3.20
2019-01-11T08:04:47.052Z,3.20
2019-01-11T08:05:48.072Z,3.20
2019-01-11T08:06:49.101Z,3.20
2019-01-11T08:07:50.135Z,3.10
2019-01-11T08:08:51.144Z,3.10
2019-01-11T08:09:52.261Z,3.10
2019-01-11T08:10:53.282Z,3.10
2019-01-11T08:11:54.312Z,3.00
2019-01-11T08:12:55.344Z,3.00
2019-01-11T08:13:56.453Z,3.00
2019-01-11T08:14:57.473Z,3.00
2019-01-11T08:15:58.488Z,3.00
2019-01-11T08:16:59.509Z,3.00
2019-01-11T08:18:00.546Z,3.00
2019-01-11T08:19:01.575Z,3.00
2019-01-11T08:20:04.184Z,3.00
2019-01-11T08:21:05.216Z,3.00
2019-01-11T08:22:08.230Z,3.10
2019-01-11T08:23:09.272Z,3.10
2019-01-11T08:24:10.280Z,3.10
2019-01-11T08:25:13.006Z,3.00
2019-01-11T08:26:14.135Z,3.00
2019-01-11T08:27:15.159Z,3.00
2019-01-11T08:28:16.272Z,3.00
2019-01-11T08:29:17.287Z,3.00
2019-01-11T08:30:18.313Z,3.00
2019-01-11T08:31:19.321Z,3.00
2019-01-11T08:32:20.336Z,3.00
2019-01-11T08:33:21.368Z,3.10
2019-01-11T08:34:22.388Z,3.10
2019-01-11T08:35:23.423Z,3.10
2019-01-11T08:36:24.458Z,3.10
2019-01-11T08:37:25.507Z,3.00
2019-01-11T08:38:28.254Z,3.00
2019-01-11T08:39:32.468Z,2.90
2019-01-11T08:40:32.196Z,3.00
2019-01-11T08:41:33.424Z,3.00
2019-01-11T08:42:34.449Z,3.00
2019-01-11T08:43:35.485Z,3.00
2019-01-11T08:44:36.617Z,3.00
2019-01-11T08:45:37.621Z,3.00
2019-01-11T08:46:38.651Z,3.10
2019-01-11T08:47:39.659Z,3.00
2019-01-11T08:48:40.705Z,3.00
2019-01-11T08:49:41.763Z,2.90
2019-01-11T08:50:42.780Z,3.00
2019-01-11T08:51:44.628Z,3.00
2019-01-11T08:52:45.752Z,3.10
2019-01-11T08:53:46.788Z,3.10
2019-01-11T08:54:47.812Z,3.10
2019-01-11T08:55:48.819Z,3.10
2019-01-11T08:56:49.848Z,3.10
2019-01-11T08:57:50.876Z,3.10
2019-01-11T08:58:51.908Z,3.10
2019-01-11T08:59:53.089Z,3.10
2019-01-11T09:00:54.188Z,3.10
2019-01-11T09:01:55.263Z,3.10
2019-01-11T09:02:56.296Z,3.10
2019-01-11T09:03:57.346Z,3.10
2019-01-11T09:04:58.368Z,3.10
2019-01-11T09:05:59.398Z,3.10
2019-01-11T09:07:00.712Z,3.10
2019-01-11T09:08:01.736Z,3.10
2019-01-11T09:09:05.784Z,3.10
2019-01-11T09:10:13.540Z,3.20
2019-01-11T09:11:14.551Z,3.10
2019-01-11T09:12:15.672Z,3.10
2019-01-11T09:13:16.704Z,3.10
2019-01-11T09:14:19.640Z,3.10
2019-01-11T09:15:20.706Z,3.10
2019-01-11T09:16:22.058Z,3.20
2019-01-11T09:17:23.065Z,3.10
2019-01-11T09:18:25.986Z,3.20
2019-01-11T09:19:27.016Z,3.10
2019-01-11T09:20:28.029Z,3.10
2019-01-11T09:21:29.449Z,3.00
2019-01-11T09:22:30.467Z,3.00
2019-01-11T09:23:31.475Z,2.90
2019-01-11T09:24:32.512Z,2.90
2019-01-11T09:25:36.293Z,2.90
2019-01-11T09:26:37.321Z,2.90
2019-01-11T09:27:38.352Z,2.90
2019-01-11T09:28:40.560Z,2.90
2019-01-11T09:29:41.620Z,2.90
2019-01-11T09:30:42.632Z,2.90
2019-01-11T09:31:43.673Z,3.00
2019-01-11T09:32:45.085Z,3.00
2019-01-11T09:33:46.105Z,3.00
2019-01-11T09:34:47.132Z,3.00
2019-01-11T09:35:48.244Z,3.00
2019-01-11T09:36:50.041Z,3.00
2019-01-11T09:37:51.064Z,3.00
2019-01-11T09:38:52.091Z,3.00
2019-01-11T09:39:53.117Z,3.10
2019-01-11T09:40:54.142Z,3.10
2019-01-11T09:41:55.157Z,3.10
2019-01-11T09:42:56.188Z,3.10
2019-01-11T09:43:57.219Z,3.10
2019-01-11T09:44:58.232Z,3.20
2019-01-11T09:45:59.565Z,3.20
2019-01-11T09:47:00.580Z,3.20
2019-01-11T09:48:01.614Z,3.30
2019-01-11T09:49:02.628Z,3.30
2019-01-11T09:50:06.800Z,3.20
2019-01-11T09:51:07.821Z,3.20
2019-01-11T09:52:08.955Z,3.20
2019-01-11T09:53:09.960Z,3.10
2019-01-11T09:54:10.974Z,3.20
2019-01-11T09:55:12.412Z,3.10
2019-01-11T09:56:13.434Z,3.10
2019-01-11T09:57:14.455Z,3.10
2019-01-11T09:58:15.476Z,3.10
2019-01-11T09:59:16.489Z,3.10
2019-01-11T10:00:20.522Z,3.10
2019-01-11T10:01:21.546Z,3.00
2019-01-11T10:02:24.489Z,3.00
2019-01-11T10:03:25.586Z,3.00
2019-01-11T10:04:28.522Z,2.90
2019-01-11T10:05:29.564Z,2.90
2019-01-11T10:06:32.489Z,2.90
2019-01-11T10:07:33.607Z,2.90
2019-01-11T10:08:34.636Z,2.90
2019-01-11T10:09:35.664Z,2.90
2019-01-11T10:10:36.698Z,2.90
2019-01-11T10:11:37.729Z,2.90
2019-01-11T10:12:38.741Z,2.90
2019-01-11T10:13:39.756Z,2.80
2019-01-11T10:14:40.772Z,2.90
2019-01-11T10:15:42.128Z,2.90
2019-01-11T10:16:43.149Z,2.90
2019-01-11T10:17:45.871Z,3.00
2019-01-11T10:18:46.906Z,3.00
2019-01-11T10:19:47.908Z,2.90
2019-01-11T10:20:49.837Z,3.00
2019-01-11T10:21:50.857Z,3.00
2019-01-11T10:22:51.868Z,3.10
2019-01-11T10:23:52.889Z,3.10
2019-01-11T10:24:53.912Z,3.10
2019-01-11T10:25:54.963Z,3.10
2019-01-11T10:26:55.992Z,3.10
2019-01-11T10:27:57.023Z,3.10
2019-01-11T10:28:58.040Z,3.10
2019-01-11T10:29:59.064Z,3.10
2019-01-11T10:31:00.778Z,3.20
2019-01-11T10:32:02.128Z,3.20
2019-01-11T10:33:03.165Z,3.30
2019-01-11T10:34:04.173Z,3.30
2019-01-11T10:35:06.693Z,3.30
2019-01-11T10:36:07.716Z,3.40
2019-01-11T10:37:08.740Z,3.40
2019-01-11T10:38:09.766Z,3.40
2019-01-11T10:39:10.901Z,3.50
2019-01-11T10:40:14.327Z,3.50
2019-01-11T10:41:15.355Z,3.50
2019-01-11T10:42:16.385Z,3.50
2019-01-11T10:43:17.417Z,3.50
2019-01-11T10:44:18.446Z,3.50
2019-01-11T10:45:20.068Z,3.50
2019-01-11T10:46:23.609Z,3.50
2019-01-11T10:47:24.633Z,3.40
2019-01-11T10:48:25.653Z,3.40
2019-01-11T10:49:26.684Z,3.40
2019-01-11T10:50:27.708Z,3.50
2019-01-11T10:51:28.770Z,3.50
2019-01-11T10:52:29.880Z,3.50
2019-01-11T10:53:30.899Z,3.60
2019-01-11T10:54:39.337Z,3.50
2019-01-11T10:55:40.383Z,3.60
2019-01-11T10:56:41.417Z,3.50
2019-01-11T10:57:42.936Z,3.50
2019-01-11T10:58:43.952Z,3.50
2019-01-11T10:59:44.972Z,3.50
2019-01-11T11:00:46.000Z,3.50
2019-01-11T11:01:47.040Z,3.60
2019-01-11T11:02:49.164Z,3.40
2019-01-11T11:03:50.176Z,3.40
2019-01-11T11:04:51.198Z,3.40
2019-01-11T11:05:52.244Z,3.30
2019-01-11T11:06:53.343Z,3.30
2019-01-11T11:07:54.364Z,3.30
2019-01-11T11:08:55.389Z,3.40
2019-01-11T11:09:56.413Z,3.40
2019-01-11T11:10:57.457Z,3.40
2019-01-11T11:11:58.497Z,3.40
2019-01-11T11:12:59.550Z,3.30
2019-01-11T11:14:00.557Z,3.30
2019-01-11T11:15:02.582Z,3.30
2019-01-11T11:16:03.605Z,3.30
2019-01-11T11:17:04.624Z,3.30
2019-01-11T11:18:05.748Z,3.30
2019-01-11T11:19:06.769Z,3.30
2019-01-11T11:20:10.994Z,3.20
2019-01-11T11:21:12.038Z,3.20
2019-01-11T11:22:13.069Z,3.20
2019-01-11T11:23:14.085Z,3.10
2019-01-11T11:24:15.104Z,3.10
2019-01-11T11:25:18.036Z,3.20
2019-01-11T11:26:19.067Z,3.00
2019-01-11T11:27:20.089Z,3.00
2019-01-11T11:28:21.114Z,3.10
2019-01-11T11:29:22.141Z,3.20
2019-01-11T11:30:23.168Z,3.20
2019-01-11T11:31:24.192Z,3.20
2019-01-11T11:32:27.120Z,3.20
2019-01-11T11:33:28.141Z,3.30
2019-01-11T11:34:29.283Z,3.30
2019-01-11T11:35:30.384Z,3.40
2019-01-11T11:36:31.408Z,3.40
2019-01-11T11:37:32.432Z,3.40
2019-01-11T11:38:33.456Z,3.30
2019-01-11T11:39:34.471Z,3.40
2019-01-11T11:40:35.588Z,3.40
2019-01-11T11:41:36.721Z,3.40
2019-01-11T11:42:37.781Z,3.50
2019-01-11T11:43:38.784Z,3.50
2019-01-11T11:44:39.865Z,3.50
2019-01-11T11:45:40.996Z,3.50
2019-01-11T11:46:42.028Z,3.40
2019-01-11T11:47:43.037Z,3.30
2019-01-11T11:48:44.064Z,3.50
2019-01-11T11:49:45.092Z,3.30
2019-01-11T11:50:46.108Z,3.30
2019-01-11T11:51:47.158Z,3.40
2019-01-11T11:52:48.193Z,3.40
2019-01-11T11:53:49.240Z,3.40
2019-01-11T11:54:50.295Z,3.40
2019-01-11T11:55:51.313Z,3.40
2019-01-11T11:56:52.344Z,3.40
2019-01-11T11:57:53.356Z,3.50
2019-01-11T11:58:54.376Z,3.50
2019-01-11T11:59:55.392Z,3.50
2019-01-11T12:00:56.411Z,3.60
2019-01-11T12:01:57.477Z,3.60
2019-01-11T12:02:58.527Z,3.60
2019-01-11T12:03:59.544Z,3.50
2019-01-11T12:05:00.573Z,3.50
2019-01-11T12:06:01.581Z,3.50
2019-01-11T12:07:02.817Z,3.60
2019-01-11T12:08:04.029Z,3.50
2019-01-11T12:09:06.665Z,3.50
2019-01-11T12:10:10.595Z,3.50
2019-01-11T12:11:11.669Z,3.50
2019-01-11T12:12:12.687Z,3.50
2019-01-11T12:13:13.707Z,3.50
2019-01-11T12:14:14.745Z,3.50
2019-01-11T12:15:15.766Z,3.50
2019-01-11T12:16:17.424Z,3.50
2019-01-11T12:17:18.480Z,3.50
2019-01-11T12:18:19.496Z,3.40
2019-01-11T12:19:20.520Z,3.40
2019-01-11T12:20:24.570Z,3.40
2019-01-11T12:21:25.660Z,3.30
2019-01-11T12:22:26.697Z,3.30
2019-01-11T12:23:27.721Z,3.30
2019-01-11T12:24:28.744Z,3.20
2019-01-11T12:25:29.773Z,3.20
2019-01-11T12:26:30.839Z,3.20
2019-01-11T12:27:31.858Z,3.20
2019-01-11T12:28:32.888Z,3.10
2019-01-11T12:29:33.910Z,3.10
2019-01-11T12:30:34.958Z,3.10
2019-01-11T12:31:35.971Z,3.10
2019-01-11T12:32:36.996Z,3.10
2019-01-11T12:33:38.028Z,3.00
2019-01-11T12:34:39.045Z,3.10
2019-01-11T12:35:40.060Z,3.10
2019-01-11T12:36:41.076Z,3.10
2019-01-11T12:37:42.132Z,3.10
2019-01-11T12:38:43.164Z,3.20
2019-01-11T12:39:44.188Z,3.20
2019-01-11T12:40:45.217Z,3.20
2019-01-11T12:41:46.246Z,3.20
2019-01-11T12:42:47.271Z,3.20
2019-01-11T12:43:48.288Z,3.10
2019-01-11T12:44:49.309Z,3.20
2019-01-11T12:45:50.340Z,3.10
2019-01-11T12:46:51.373Z,3.10
2019-01-11T12:47:52.403Z,3.10
2019-01-11T12:48:53.433Z,3.10
2019-01-11T12:49:54.443Z,3.10
2019-01-11T12:50:55.460Z,3.10
2019-01-11T12:51:56.505Z,3.10
2019-01-11T12:52:57.536Z,3.20
2019-01-11T12:53:58.573Z,3.10
2019-01-11T12:54:59.596Z,3.00
2019-01-11T12:56:00.605Z,3.00
2019-01-11T12:57:01.641Z,3.00
2019-01-11T12:58:02.878Z,3.00
2019-01-11T12:59:03.912Z,3.10
2019-01-11T13:00:08.762Z,3.00
2019-01-11T13:01:09.778Z,3.00
2019-01-11T13:02:10.800Z,3.00
2019-01-11T13:03:11.854Z,3.00
2019-01-11T13:04:12.870Z,2.90
2019-01-11T13:05:16.092Z,2.90
2019-01-11T13:06:17.119Z,2.90
2019-01-11T13:07:18.140Z,2.90
2019-01-11T13:08:19.182Z,2.90
2019-01-11T13:09:20.196Z,2.90
2019-01-11T13:10:21.227Z,2.90
2019-01-11T13:11:22.247Z,3.00
2019-01-11T13:12:23.264Z,2.90
2019-01-11T13:13:24.284Z,3.00
2019-01-11T13:14:25.301Z,3.00
2019-01-11T13:15:26.426Z,3.00
2019-01-11T13:16:27.438Z,2.90
2019-01-11T13:17:28.457Z,2.90
2019-01-11T13:18:29.488Z,2.90
2019-01-11T13:19:30.761Z,2.90
2019-01-11T13:20:31.768Z,2.90
2019-01-11T13:21:32.787Z,2.70
2019-01-11T13:22:33.871Z,2.90
2019-01-11T13:23:34.916Z,2.80
2019-01-11T13:24:35.937Z,2.90
2019-01-11T13:25:36.956Z,2.90
2019-01-11T13:26:38.019Z,2.90
2019-01-11T13:27:39.105Z,3.00
2019-01-11T13:28:40.151Z,3.00
2019-01-11T13:29:41.187Z,3.00
2019-01-11T13:30:42.800Z,3.00
2019-01-11T13:31:43.895Z,2.90
2019-01-11T13:32:44.920Z,3.00
2019-01-11T13:33:45.966Z,2.90
2019-01-11T13:34:46.989Z,3.00
2019-01-11T13:35:48.017Z,3.00
2019-01-11T13:36:53.933Z,3.00